Time;durP1;ratioP1;P1;durP2;ratioP2;P2;SDS_P1;SDS_P2;PMS_P1;PMS_P2;Temp;Humidity;BMP_temperature;BMP_pressure;BME280_temperature;BME280_humidity;BME280_pressure;Samples;Min_cycle;Max_cycle;Signal;HPM_P1;HPM_P2
2021/01/06 00:01:04;;;;;;;15.30;9.03;;;4.30;99.90;;;;;;5071478;28;20456;-67
2021/01/06 00:03:30;;;;;;;13.97;10.00;;;4.30;99.90;;;;;;5085177;28;20478;-66
2021/01/06 00:05:59;;;;;;;16.77;11.27;;;4.30;99.90;;;;;;5082969;28;20445;-66
2021/01/06 00:08:26;;;;;;;17.73;10.87;;;4.20;99.90;;;;;;5081914;28;20454;-66
2021/01/06 00:10:55;;;;;;;16.23;9.73;;;4.20;99.90;;;;;;5086548;28;20524;-66
2021/01/06 00:13:22;;;;;;;18.07;11.50;;;4.10;99.90;;;;;;5076694;28;21066;-66
2021/01/06 00:15:48;;;;;;;17.33;10.77;;;4.10;99.90;;;;;;5073364;28;21027;-66
2021/01/06 00:18:17;;;;;;;16.53;10.50;;;4.20;99.90;;;;;;5084696;28;20533;-66
2021/01/06 00:20:43;;;;;;;17.07;11.30;;;4.10;99.90;;;;;;5088742;28;20487;-66
2021/01/06 00:23:10;;;;;;;20.57;12.00;;;4.10;99.90;;;;;;5077541;28;20471;-66
2021/01/06 00:25:41;;;;;;;18.10;11.37;;;4.00;99.90;;;;;;5078445;28;20475;-66
2021/01/06 00:28:09;;;;;;;18.87;12.33;;;4.00;99.90;;;;;;5077083;28;20459;-66
2021/01/06 00:30:37;;;;;;;16.77;10.50;;;4.00;99.90;;;;;;5072423;28;20571;-66
2021/01/06 00:33:06;;;;;;;17.43;10.80;;;4.10;99.90;;;;;;5080551;28;20590;-66
2021/01/06 00:35:34;;;;;;;14.70;9.80;;;4.10;99.90;;;;;;5071709;28;20903;-66
2021/01/06 00:38:00;;;;;;;18.67;10.33;;;4.10;99.90;;;;;;5082117;28;20533;-66
2021/01/06 00:40:30;;;;;;;14.93;10.37;;;4.00;99.90;;;;;;5071273;28;20481;-66
2021/01/06 00:42:57;;;;;;;16.33;11.00;;;3.80;99.90;;;;;;5074802;28;20480;-67
2021/01/06 00:45:23;;;;;;;16.90;11.30;;;4.00;99.90;;;;;;5084905;28;20437;-66
2021/01/06 00:47:50;;;;;;;16.67;11.07;;;3.90;99.90;;;;;;5083254;28;20535;-66
2021/01/06 00:50:18;;;;;;;14.17;10.23;;;4.00;99.90;;;;;;5072461;28;20457;-66
2021/01/06 00:52:45;;;;;;;16.97;9.80;;;3.90;99.90;;;;;;5085208;28;20456;-66
2021/01/06 00:55:12;;;;;;;16.07;10.67;;;3.90;99.90;;;;;;5074291;28;20904;-67
2021/01/06 00:57:39;;;;;;;19.03;9.33;;;3.90;99.90;;;;;;5074343;28;20472;-67
2021/01/06 01:00:08;;;;;;;16.87;11.10;;;3.90;99.90;;;;;;5077866;28;20767;-67
2021/01/06 01:02:35;;;;;;;15.57;9.40;;;3.80;99.90;;;;;;5078901;28;20566;-66
2021/01/06 01:05:01;;;;;;;13.30;9.20;;;3.80;99.90;;;;;;5080809;28;20474;-67
2021/01/06 01:07:27;;;;;;;15.13;9.40;;;3.80;99.90;;;;;;5065604;28;20528;-67
2021/01/06 01:09:55;;;;;;;15.77;9.50;;;3.80;99.90;;;;;;5082436;28;20531;-67
2021/01/06 01:12:22;;;;;;;17.67;9.60;;;3.90;99.90;;;;;;5089042;28;20439;-67
2021/01/06 01:14:49;;;;;;;18.93;10.60;;;3.90;99.90;;;;;;5076822;28;20483;-67
2021/01/06 01:17:16;;;;;;;18.27;10.33;;;4.00;99.90;;;;;;5071596;28;20548;-67
2021/01/06 01:19:43;;;;;;;15.30;10.20;;;3.90;99.90;;;;;;5084721;28;20440;-67
2021/01/06 01:22:09;;;;;;;13.53;8.57;;;3.70;99.90;;;;;;5079628;28;20448;-66
2021/01/06 01:24:35;;;;;;;16.97;9.60;;;3.80;99.90;;;;;;5073235;28;20456;-66
2021/01/06 01:27:03;;;;;;;20.13;9.70;;;3.80;99.90;;;;;;5082935;28;20531;-67
2021/01/06 01:29:30;;;;;;;13.70;8.60;;;3.90;99.90;;;;;;5069782;28;20483;-67
2021/01/06 01:31:57;;;;;;;15.90;9.70;;;3.90;99.90;;;;;;5075462;28;20481;-67
2021/01/06 01:34:23;;;;;;;15.40;10.67;;;3.90;99.90;;;;;;5084361;28;20622;-67
2021/01/06 01:36:50;;;;;;;14.60;9.30;;;3.90;99.90;;;;;;5085534;28;20974;-67
2021/01/06 01:39:18;;;;;;;12.40;8.80;;;3.90;99.90;;;;;;5074989;28;20933;-67
2021/01/06 01:41:44;;;;;;;14.37;9.80;;;4.00;78.40;;;;;;5078195;28;20469;-67
2021/01/06 01:44:13;;;;;;;12.77;9.00;;;3.80;99.90;;;;;;5080638;28;20536;-67
2021/01/06 01:47:15;;;;;;;14.17;9.20;;;4.00;99.90;;;;;;5087542;28;20527;-67
2021/01/06 01:49:47;;;;;;;13.87;9.17;;;3.90;99.90;;;;;;5074317;28;20448;-67
2021/01/06 01:52:22;;;;;;;12.90;8.80;;;3.80;99.90;;;;;;5073113;28;20461;-67
2021/01/06 01:54:50;;;;;;;14.60;8.70;;;3.90;99.90;;;;;;5073023;28;20483;-66
2021/01/06 01:57:19;;;;;;;12.20;7.33;;;3.90;99.90;;;;;;5073803;28;20457;-66
2021/01/06 01:59:53;;;;;;;11.60;8.30;;;4.00;99.90;;;;;;5073548;28;20911;-67
2021/01/06 02:02:27;;;;;;;15.23;8.20;;;3.90;99.90;;;;;;5060440;28;20487;-67
2021/01/06 02:04:58;;;;;;;14.50;9.80;;;3.90;99.90;;;;;;5073073;28;20460;-67
2021/01/06 02:07:27;;;;;;;12.93;7.93;;;3.80;93.60;;;;;;5073918;28;20520;-67
2021/01/06 02:09:59;;;;;;;12.03;7.80;;;3.80;99.90;;;;;;5072752;28;20487;-67
2021/01/06 02:12:34;;;;;;;14.07;10.23;;;3.80;91.20;;;;;;5073097;28;20449;-67
2021/01/06 02:15:08;;;;;;;15.70;9.20;;;3.80;99.90;;;;;;5073021;28;20488;-67
2021/01/06 02:17:35;;;;;;;14.30;8.50;;;3.60;99.90;;;;;;5072988;28;20447;-67
2021/01/06 02:20:01;;;;;;;11.37;7.77;;;3.70;99.90;;;;;;5073156;28;20451;-67
2021/01/06 02:22:29;;;;;;;11.40;7.97;;;3.70;99.90;;;;;;5073227;28;20546;-66
2021/01/06 02:24:55;;;;;;;11.97;8.10;;;3.80;99.90;;;;;;5073002;28;20536;-67
2021/01/06 02:27:22;;;;;;;13.43;9.07;;;3.70;70.90;;;;;;5073480;28;20452;-68
2021/01/06 02:29:49;;;;;;;12.70;8.60;;;3.70;99.90;;;;;;5072549;28;20466;-68
2021/01/06 02:32:16;;;;;;;13.80;8.20;;;3.50;99.90;;;;;;5072765;28;20449;-67
2021/01/06 02:34:43;;;;;;;15.70;9.93;;;3.70;99.90;;;;;;5073478;28;20852;-67
2021/01/06 02:37:11;;;;;;;14.97;8.33;;;3.70;99.90;;;;;;5066692;28;20912;-67
2021/01/06 02:39:39;;;;;;;13.20;8.00;;;3.80;99.90;;;;;;5072915;28;20445;-67
2021/01/06 02:42:07;;;;;;;14.30;8.80;;;3.70;99.90;;;;;;5070781;28;20526;-67
2021/01/06 02:44:34;;;;;;;12.93;7.50;;;3.70;99.90;;;;;;5072794;28;20488;-67
2021/01/06 02:47:00;;;;;;;12.43;8.03;;;3.80;99.90;;;;;;5072336;28;20525;-67
2021/01/06 02:49:27;;;;;;;10.83;6.93;;;3.70;99.90;;;;;;5072868;28;20544;-67
2021/01/06 02:51:58;;;;;;;15.90;7.90;;;3.60;99.90;;;;;;5071900;28;20463;-67
2021/01/06 02:54:31;;;;;;;14.30;7.20;;;3.60;99.90;;;;;;5072831;28;20476;-66
2021/01/06 02:57:00;;;;;;;12.03;7.53;;;3.50;99.90;;;;;;5072451;28;20543;-67
2021/01/06 02:59:32;;;;;;;10.17;8.10;;;3.40;99.90;;;;;;5072919;28;20533;-67
2021/01/06 03:02:01;;;;;;;12.60;7.67;;;3.50;99.90;;;;;;5071652;28;20501;-66
2021/01/06 03:04:31;;;;;;;10.30;7.00;;;3.20;99.90;;;;;;5071956;28;20449;-67
2021/01/06 03:07:01;;;;;;;11.60;7.97;;;3.40;99.90;;;;;;5072134;28;20536;-67
2021/01/06 03:09:33;;;;;;;12.03;7.30;;;3.40;99.90;;;;;;5072608;28;20957;-67
2021/01/06 03:12:03;;;;;;;10.60;7.17;;;3.40;99.90;;;;;;5071706;28;20453;-67
2021/01/06 03:14:32;;;;;;;11.80;7.90;;;3.60;99.90;;;;;;5072643;28;20571;-67
2021/01/06 03:16:59;;;;;;;11.20;6.60;;;3.50;99.90;;;;;;5071960;28;20452;-68
2021/01/06 03:19:27;;;;;;;13.00;8.83;;;3.60;99.90;;;;;;5072246;28;20478;-67
2021/01/06 03:21:57;;;;;;;11.73;7.50;;;3.60;99.90;;;;;;5071209;28;20521;-66
2021/01/06 03:24:27;;;;;;;11.60;7.60;;;3.50;99.90;;;;;;5071866;28;20445;-66
2021/01/06 03:26:56;;;;;;;8.93;6.93;;;3.40;99.90;;;;;;5072039;28;20498;-66
2021/01/06 03:29:26;;;;;;;13.20;7.77;;;3.40;99.90;;;;;;5072356;28;20455;-66
2021/01/06 03:31:53;;;;;;;13.40;7.50;;;3.40;99.90;;;;;;5071431;28;20528;-66
2021/01/06 03:34:22;;;;;;;10.13;8.17;;;3.40;99.90;;;;;;5071701;28;20570;-67
2021/01/06 03:36:55;;;;;;;10.93;6.73;;;3.00;99.90;;;;;;5071732;28;20526;-66
2021/01/06 03:39:27;;;;;;;11.47;7.13;;;3.20;99.90;;;;;;5072412;28;20546;-66
2021/01/06 03:41:54;;;;;;;9.13;6.60;;;3.30;99.90;;;;;;5071500;28;20449;-66
2021/01/06 03:44:22;;;;;;;8.03;6.80;;;3.30;99.90;;;;;;5071844;28;20541;-66
2021/01/06 03:46:57;;;;;;;12.63;7.93;;;3.20;99.90;;;;;;5070844;28;20533;-67
2021/01/06 03:49:43;;;;;;;12.90;8.13;;;3.30;99.90;;;;;;5072197;28;20632;-67
2021/01/06 03:52:17;;;;;;;10.47;6.27;;;3.20;99.90;;;;;;5070579;28;20488;-67
2021/01/06 03:54:54;;;;;;;10.93;7.10;;;3.20;99.90;;;;;;5071057;28;20486;-67
2021/01/06 03:57:22;;;;;;;8.73;6.30;;;3.40;99.90;;;;;;5071765;28;20478;-66
2021/01/06 03:59:51;;;;;;;9.83;6.40;;;3.30;99.90;;;;;;5070928;28;20446;-66
2021/01/06 04:02:22;;;;;;;11.07;8.40;;;3.50;99.90;;;;;;5070660;28;20562;-66
2021/01/06 04:04:51;;;;;;;11.97;7.53;;;3.30;99.90;;;;;;5070572;28;20524;-66
2021/01/06 04:07:23;;;;;;;9.13;7.43;;;3.20;99.90;;;;;;5080129;28;20437;-66
2021/01/06 04:09:53;;;;;;;11.10;7.07;;;3.30;99.90;;;;;;5082261;28;20865;-66
2021/01/06 04:12:20;;;;;;;9.70;7.80;;;3.30;99.90;;;;;;5071419;28;20447;-66
2021/01/06 04:14:47;;;;;;;9.57;6.47;;;3.20;99.90;;;;;;5072931;28;20992;-66
2021/01/06 04:17:22;;;;;;;10.80;7.93;;;3.30;99.90;;;;;;5091612;28;20987;-66
2021/01/06 04:19:52;;;;;;;11.13;8.00;;;3.40;99.90;;;;;;5091109;28;20441;-66
2021/01/06 04:22:23;;;;;;;10.47;7.00;;;3.30;99.90;;;;;;5079652;28;20546;-66
2021/01/06 04:24:50;;;;;;;10.10;7.03;;;3.20;99.90;;;;;;5071021;28;20545;-66
2021/01/06 04:27:19;;;;;;;12.33;7.13;;;3.30;99.90;;;;;;5070951;28;20934;-66
2021/01/06 04:29:46;;;;;;;10.33;6.83;;;3.30;99.90;;;;;;5070541;28;21275;-66
2021/01/06 04:32:13;;;;;;;10.23;7.23;;;3.30;99.90;;;;;;5070856;28;20581;-66
2021/01/06 04:34:40;;;;;;;9.77;6.63;;;3.30;99.90;;;;;;5070841;28;20477;-66
2021/01/06 04:37:06;;;;;;;10.40;7.47;;;3.30;99.90;;;;;;5070306;28;20969;-66
2021/01/06 04:39:33;;;;;;;11.67;8.87;;;3.20;99.90;;;;;;5070646;28;20452;-67
2021/01/06 04:42:04;;;;;;;10.63;7.60;;;3.00;99.90;;;;;;5069981;28;20494;-66
2021/01/06 04:44:44;;;;;;;13.13;7.67;;;3.00;99.90;;;;;;5070947;28;20459;-66
2021/01/06 04:47:34;;;;;;;15.90;7.30;;;3.00;99.90;;;;;;5072450;28;20447;-66
2021/01/06 04:50:29;;;;;;;14.40;7.90;;;3.20;99.90;;;;;;5090492;28;20520;-66
2021/01/06 04:53:06;;;;;;;14.77;9.43;;;3.30;99.90;;;;;;5073078;28;20545;-66
2021/01/06 04:55:40;;;;;;;13.87;8.10;;;3.30;99.90;;;;;;5070689;28;20911;-66
2021/01/06 04:58:19;;;;;;;16.77;7.50;;;3.30;99.90;;;;;;5070193;28;20528;-67
2021/01/06 05:01:02;;;;;;;11.77;9.00;;;3.10;99.90;;;;;;5069703;28;20449;-67
2021/01/06 05:03:40;;;;;;;16.10;9.57;;;3.10;99.90;;;;;;5069499;28;20591;-66
2021/01/06 05:06:33;;;;;;;10.83;7.30;;;3.10;99.90;;;;;;5064561;28;20476;-67
2021/01/06 05:09:05;;;;;;;14.30;9.47;;;3.30;99.90;;;;;;5056571;28;20449;-66
2021/01/06 05:11:35;;;;;;;10.03;6.60;;;3.10;99.90;;;;;;5070371;28;20550;-67
2021/01/06 05:14:04;;;;;;;11.87;6.87;;;3.30;99.90;;;;;;5081849;28;20542;-66
2021/01/06 05:16:35;;;;;;;25.40;10.03;;;3.30;99.90;;;;;;5067644;28;20488;-66
2021/01/06 05:19:04;;;;;;;13.60;8.90;;;3.20;99.90;;;;;;5067642;28;20524;-66
2021/01/06 05:21:31;;;;;;;11.60;8.13;;;3.30;99.90;;;;;;5072298;28;20536;-66
2021/01/06 05:24:06;;;;;;;11.00;6.97;;;3.30;99.90;;;;;;5069719;28;20465;-66
2021/01/06 05:26:32;;;;;;;12.73;8.70;;;3.30;99.90;;;;;;5087369;28;20534;-66
2021/01/06 05:29:01;;;;;;;10.77;7.10;;;3.40;99.90;;;;;;5087440;28;20945;-66
2021/01/06 05:31:28;;;;;;;14.13;7.77;;;3.40;99.90;;;;;;5087791;28;20537;-67
2021/01/06 05:33:54;;;;;;;15.10;7.57;;;3.30;99.90;;;;;;5087906;28;20572;-67
2021/01/06 05:36:25;;;;;;;10.57;7.67;;;3.40;99.90;;;;;;5080942;28;20866;-66
2021/01/06 05:38:53;;;;;;;12.00;6.83;;;3.50;99.90;;;;;;5081568;28;20921;-66
2021/01/06 05:41:19;;;;;;;12.57;8.17;;;3.50;99.90;;;;;;5076055;28;20548;-66
2021/01/06 05:43:50;;;;;;;11.97;8.20;;;3.40;99.90;;;;;;5074148;28;20460;-66
2021/01/06 05:46:24;;;;;;;14.23;7.50;;;3.50;99.90;;;;;;5074622;28;20610;-67
2021/01/06 05:48:54;;;;;;;10.10;6.70;;;3.40;99.90;;;;;;5066250;28;20520;-66
2021/01/06 05:51:29;;;;;;;11.63;7.23;;;3.20;99.90;;;;;;5068890;28;21017;-66
2021/01/06 05:53:59;;;;;;;8.43;7.20;;;3.30;99.90;;;;;;5068453;28;20494;-67
2021/01/06 05:56:50;;;;;;;10.13;7.23;;;3.40;99.90;;;;;;5069005;28;20502;-67
2021/01/06 05:59:24;;;;;;;10.40;6.50;;;3.20;74.70;;;;;;5068252;28;20532;-66
2021/01/06 06:01:56;;;;;;;9.97;8.00;;;3.40;99.90;;;;;;5065252;28;20475;-66
2021/01/06 06:04:41;;;;;;;9.00;6.60;;;3.30;99.90;;;;;;5067896;28;20453;-67
2021/01/06 06:07:24;;;;;;;11.03;5.87;;;3.30;99.90;;;;;;5066161;28;20475;-67
2021/01/06 06:10:31;;;;;;;9.47;7.00;;;3.00;99.90;;;;;;5063133;28;20532;-67
2021/01/06 06:13:09;;;;;;;10.07;7.77;;;3.10;99.90;;;;;;5068616;28;20456;-68
2021/01/06 06:15:58;;;;;;;14.40;6.90;;;2.90;99.90;;;;;;5087755;28;20444;-67
2021/01/06 06:18:40;;;;;;;9.13;5.73;;;3.00;99.90;;;;;;5075912;28;20519;-67
2021/01/06 06:21:20;;;;;;;9.23;6.50;;;3.10;99.90;;;;;;5075936;28;20974;-67
2021/01/06 06:24:10;;;;;;;11.63;6.77;;;3.20;99.90;;;;;;5068861;28;20891;-66
2021/01/06 06:26:46;;;;;;;8.20;6.33;;;3.20;99.90;;;;;;5071122;28;20527;-67
2021/01/06 06:29:20;;;;;;;12.07;7.27;;;3.20;99.90;;;;;;5070756;28;20476;-67
2021/01/06 06:31:51;;;;;;;8.90;6.17;;;3.30;99.90;;;;;;5070300;28;20461;-66
2021/01/06 06:34:25;;;;;;;10.43;5.97;;;3.40;99.90;;;;;;5070962;28;20941;-67
2021/01/06 06:37:01;;;;;;;8.70;6.40;;;3.10;99.90;;;;;;5080746;28;20472;-67
2021/01/06 06:39:31;;;;;;;9.67;6.70;;;3.30;99.90;;;;;;5091052;28;20448;-67
2021/01/06 06:42:11;;;;;;;8.40;6.20;;;3.30;99.90;;;;;;5085887;28;20528;-66
2021/01/06 06:44:49;;;;;;;7.20;6.07;;;3.30;99.90;;;;;;5091272;28;20910;-67
2021/01/06 06:47:16;;;;;;;8.23;5.80;;;3.10;99.90;;;;;;5081899;28;20445;-66
2021/01/06 06:49:54;;;;;;;8.60;5.80;;;3.10;99.90;;;;;;5070508;28;20458;-66
2021/01/06 06:52:27;;;;;;;8.87;6.30;;;3.20;99.90;;;;;;5067444;28;20465;-66
2021/01/06 06:55:02;;;;;;;9.73;6.93;;;3.10;99.90;;;;;;5068437;28;20481;-66
2021/01/06 06:57:34;;;;;;;9.73;5.30;;;3.00;99.90;;;;;;5069995;28;20457;-67
2021/01/06 07:00:12;;;;;;;10.90;6.00;;;3.20;99.90;;;;;;5069360;28;20540;-67
2021/01/06 07:02:44;;;;;;;9.10;5.70;;;3.00;68.40;;;;;;5069893;28;20984;-66
2021/01/06 07:05:21;;;;;;;10.13;5.63;;;2.90;99.90;;;;;;5069118;28;20456;-67
2021/01/06 07:07:53;;;;;;;8.27;6.20;;;2.80;99.90;;;;;;5069570;28;20452;-66
2021/01/06 07:10:23;;;;;;;8.07;5.67;;;3.00;99.90;;;;;;5069059;28;20538;-66
2021/01/06 07:12:52;;;;;;;10.63;6.13;;;3.10;99.90;;;;;;5069073;28;20498;-66
2021/01/06 07:15:30;;;;;;;6.50;5.70;;;3.30;99.90;;;;;;5069732;28;20481;-66
2021/01/06 07:17:57;;;;;;;6.57;4.93;;;3.20;99.90;;;;;;5068860;28;20536;-66
2021/01/06 07:20:38;;;;;;;8.07;5.80;;;3.40;99.90;;;;;;5069453;28;20455;-66
2021/01/06 07:23:13;;;;;;;6.83;5.20;;;3.40;79.50;;;;;;5067413;28;20461;-66
2021/01/06 07:25:42;;;;;;;8.30;4.77;;;3.10;99.90;;;;;;5069467;28;20539;-66
2021/01/06 07:28:15;;;;;;;11.10;7.27;;;3.10;99.90;;;;;;5066667;28;20454;-66
2021/01/06 07:30:43;;;;;;;9.10;5.57;;;3.00;99.90;;;;;;5069195;28;20446;-66
2021/01/06 07:33:18;;;;;;;8.13;5.63;;;3.10;99.90;;;;;;5068852;28;20534;-66
2021/01/06 07:35:45;;;;;;;9.73;5.93;;;3.30;99.90;;;;;;5069403;28;20923;-65
2021/01/06 07:38:13;;;;;;;6.20;4.90;;;3.30;99.90;;;;;;5069140;28;20527;-66
2021/01/06 07:40:42;;;;;;;8.10;5.37;;;3.40;99.90;;;;;;5069494;28;21012;-66
2021/01/06 07:43:21;;;;;;;8.57;6.87;;;3.20;45.20;;;;;;5068784;28;20859;-66
2021/01/06 07:46:13;;;;;;;7.77;5.53;;;3.30;99.90;;;;;;5068107;28;20870;-67
2021/01/06 07:48:55;;;;;;;6.93;5.23;;;3.40;32.70;;;;;;5065957;28;20967;-67
2021/01/06 07:51:32;;;;;;;6.10;5.30;;;3.30;44.20;;;;;;5067107;28;20446;-66
2021/01/06 07:54:12;;;;;;;6.87;5.50;;;3.30;99.90;;;;;;5065879;28;21027;-66
2021/01/06 07:56:46;;;;;;;8.00;6.37;;;3.20;1.00;;;;;;5065614;28;20524;-66
2021/01/06 07:59:21;;;;;;;8.83;6.40;;;3.30;73.70;;;;;;5067494;28;20953;-67
2021/01/06 08:01:54;;;;;;;7.73;6.00;;;3.40;95.20;;;;;;5069589;28;20479;-67
2021/01/06 08:04:27;;;;;;;6.70;5.50;;;3.50;51.20;;;;;;5070501;28;20529;-67
2021/01/06 08:06:56;;;;;;;6.03;4.93;;;3.60;12.90;;;;;;5073046;28;20531;-67
2021/01/06 08:09:35;;;;;;;6.67;5.07;;;3.50;8.00;;;;;;5080543;28;20584;-67
2021/01/06 08:12:12;;;;;;;7.97;5.23;;;3.50;73.30;;;;;;5078951;28;20527;-67
2021/01/06 08:14:40;;;;;;;8.57;5.47;;;3.60;1.00;;;;;;5082360;28;20572;-67
2021/01/06 08:17:18;;;;;;;7.30;5.47;;;3.40;2.00;;;;;;5068306;28;20543;-68
2021/01/06 08:19:58;;;;;;;6.13;5.23;;;3.30;18.20;;;;;;5065370;28;20449;-67
2021/01/06 08:22:29;;;;;;;8.07;5.87;;;3.40;99.90;;;;;;5066592;28;20539;-67
2021/01/06 08:25:16;;;;;;;7.20;6.03;;;3.40;44.90;;;;;;5068425;28;21034;-67
2021/01/06 08:27:42;;;;;;;9.67;5.10;;;3.40;26.80;;;;;;5068656;28;20448;-67
2021/01/06 08:30:16;;;;;;;7.17;6.10;;;3.80;99.90;;;;;;5067859;28;20453;-67
2021/01/06 08:32:43;;;;;;;7.40;5.80;;;4.30;1.00;;;;;;5068763;28;20960;-67
2021/01/06 08:35:19;;;;;;;6.50;4.73;;;4.30;1.00;;;;;;5069642;28;20489;-68
2021/01/06 08:37:50;;;;;;;7.00;5.63;;;4.40;1.00;;;;;;5070709;28;20735;-67
2021/01/06 08:40:33;;;;;;;7.80;5.53;;;4.00;1.00;;;;;;5069300;28;20457;-68
2021/01/06 08:43:02;;;;;;;7.67;5.53;;;3.70;1.00;;;;;;5068565;28;20539;-69
2021/01/06 08:45:33;;;;;;;6.13;5.50;;;3.70;1.00;;;;;;5067969;28;20540;-68
2021/01/06 08:48:14;;;;;;;6.00;5.10;;;3.50;1.00;;;;;;5067570;28;20456;-68
2021/01/06 08:50:44;;;;;;;8.90;5.53;;;3.50;12.30;;;;;;5067527;28;20444;-68
2021/01/06 08:53:14;;;;;;;6.80;5.03;;;3.30;42.60;;;;;;5066979;28;20455;-68
2021/01/06 08:55:53;;;;;;;7.37;5.47;;;3.40;8.00;;;;;;5067826;28;20585;-68
2021/01/06 08:58:20;;;;;;;7.10;5.20;;;3.40;96.20;;;;;;5067836;28;20530;-68
2021/01/06 09:00:59;;;;;;;7.20;5.40;;;3.60;45.50;;;;;;5065572;28;20489;-68
2021/01/06 09:03:30;;;;;;;5.97;5.03;;;3.50;1.00;;;;;;5066551;28;20580;-68
2021/01/06 09:06:07;;;;;;;8.23;5.23;;;3.40;49.10;;;;;;5066733;28;20448;-68
2021/01/06 09:08:44;;;;;;;6.27;5.33;;;3.30;58.80;;;;;;5066212;28;20532;-68
2021/01/06 09:11:18;;;;;;;6.60;4.93;;;3.20;99.90;;;;;;5067697;28;20449;-68
2021/01/06 09:13:50;;;;;;;8.27;6.63;;;3.20;99.90;;;;;;5067907;28;20520;-68
2021/01/06 09:16:22;;;;;;;7.13;5.70;;;3.40;99.90;;;;;;5067521;28;20647;-68
2021/01/06 09:18:57;;;;;;;7.30;5.30;;;3.40;3.90;;;;;;5067285;28;20518;-68
2021/01/06 09:21:29;;;;;;;6.77;5.23;;;3.40;94.10;;;;;;5067564;28;20979;-68
2021/01/06 09:24:03;;;;;;;7.37;6.13;;;3.30;9.00;;;;;;5065352;28;20823;-68
2021/01/06 09:26:30;;;;;;;7.20;5.00;;;3.20;99.20;;;;;;5067393;28;20460;-68
2021/01/06 09:29:04;;;;;;;7.67;5.90;;;3.30;99.90;;;;;;5066337;28;20540;-68
2021/01/06 09:31:34;;;;;;;8.70;5.40;;;3.40;99.90;;;;;;5063913;28;21013;-68
2021/01/06 09:34:01;;;;;;;6.30;4.37;;;3.40;99.90;;;;;;5067185;28;20565;-68
2021/01/06 09:36:28;;;;;;;8.27;5.47;;;3.60;76.10;;;;;;5067970;28;20536;-68
2021/01/06 09:38:57;;;;;;;6.70;4.93;;;3.50;29.20;;;;;;5067422;28;20454;-68
2021/01/06 09:41:28;;;;;;;6.37;5.67;;;3.40;1.00;;;;;;5066764;28;20449;-68
2021/01/06 09:43:58;;;;;;;8.40;5.00;;;3.40;73.50;;;;;;5066981;28;20949;-68
2021/01/06 09:46:34;;;;;;;7.10;5.33;;;3.40;5.80;;;;;;5068102;28;20468;-68
2021/01/06 09:49:05;;;;;;;6.60;5.00;;;3.20;99.90;;;;;;5067160;28;20544;-68
2021/01/06 09:51:33;;;;;;;8.93;6.33;;;3.40;99.90;;;;;;5067874;28;20531;-68
2021/01/06 09:54:04;;;;;;;7.27;5.53;;;3.50;99.90;;;;;;5071117;28;20496;-68
2021/01/06 09:56:32;;;;;;;6.20;5.27;;;3.60;99.80;;;;;;5071440;28;20555;-68
2021/01/06 09:58:59;;;;;;;9.43;5.00;;;3.60;99.90;;;;;;5071025;28;20945;-68
2021/01/06 10:01:36;;;;;;;6.63;5.07;;;3.70;94.40;;;;;;5070271;28;20449;-68
2021/01/06 10:04:13;;;;;;;7.00;5.17;;;3.60;86.50;;;;;;5075251;28;20483;-68
2021/01/06 10:06:50;;;;;;;6.40;5.27;;;3.40;99.90;;;;;;5071143;28;20440;-68
2021/01/06 10:09:25;;;;;;;7.40;5.30;;;3.20;99.90;;;;;;5081157;28;20538;-67
2021/01/06 10:12:12;;;;;;;5.40;4.63;;;3.30;99.90;;;;;;5073791;28;20800;-67
2021/01/06 10:15:08;;;;;;;7.93;4.80;;;3.40;99.90;;;;;;5070145;28;20992;-67
2021/01/06 10:17:40;;;;;;;6.27;4.30;;;3.20;99.90;;;;;;5094168;28;20452;-67
2021/01/06 10:20:20;;;;;;;8.33;6.00;;;3.40;99.90;;;;;;5088309;28;20769;-68
2021/01/06 10:22:52;;;;;;;7.67;5.00;;;3.10;99.90;;;;;;5072953;28;20547;-68
2021/01/06 10:25:39;;;;;;;5.87;5.00;;;3.10;99.90;;;;;;5073920;28;20544;-68
2021/01/06 10:28:11;;;;;;;7.60;5.50;;;3.10;99.90;;;;;;5072956;28;20476;-68
2021/01/06 10:30:37;;;;;;;5.73;4.90;;;3.30;99.90;;;;;;5072914;28;20969;-68
2021/01/06 10:33:12;;;;;;;6.37;5.00;;;3.30;99.90;;;;;;5073075;28;20440;-68
2021/01/06 10:35:45;;;;;;;9.60;5.40;;;3.40;99.90;;;;;;5073473;28;20564;-68
2021/01/06 10:38:27;;;;;;;6.90;5.07;;;3.20;99.90;;;;;;5073860;28;20446;-68
2021/01/06 10:40:56;;;;;;;9.83;5.20;;;3.30;99.90;;;;;;5072864;28;20452;-68
2021/01/06 10:43:44;;;;;;;7.90;5.60;;;3.10;99.90;;;;;;5073485;28;20515;-68
2021/01/06 10:46:41;;;;;;;8.70;5.27;;;3.10;99.90;;;;;;5073145;28;20445;-68
2021/01/06 10:49:13;;;;;;;6.53;5.53;;;2.80;99.90;;;;;;5072536;28;20537;-69
2021/01/06 10:52:16;;;;;;;9.00;7.03;;;2.90;99.90;;;;;;5073121;28;20520;-68
2021/01/06 10:54:47;;;;;;;10.10;7.37;;;3.20;99.90;;;;;;5021622;28;20567;-69
2021/01/06 10:57:25;;;;;;;9.40;6.20;;;3.40;99.90;;;;;;5073066;28;21006;-69
2021/01/06 11:00:20;;;;;;;8.80;6.83;;;3.30;99.90;;;;;;5072507;28;20464;-69
2021/01/06 11:03:10;;;;;;;8.67;6.60;;;3.40;99.90;;;;;;5058813;28;21028;-68
2021/01/06 11:05:42;;;;;;;7.03;5.90;;;3.40;99.90;;;;;;5073038;28;20574;-68
2021/01/06 11:08:45;;;;;;;7.77;6.30;;;3.40;99.90;;;;;;5072627;28;20514;-68
2021/01/06 11:11:41;;;;;;;7.87;6.57;;;3.40;99.90;;;;;;5071858;28;20525;-68
2021/01/06 11:14:29;;;;;;;12.40;6.00;;;3.50;99.90;;;;;;5066080;28;20851;-67
2021/01/06 11:16:59;;;;;;;7.83;6.20;;;3.60;99.90;;;;;;5072620;28;20870;-68
2021/01/06 11:19:47;;;;;;;9.33;6.20;;;3.60;99.90;;;;;;5072261;28;20479;-68
2021/01/06 11:22:30;;;;;;;9.13;5.87;;;3.60;99.90;;;;;;5071711;28;21021;-67
2021/01/06 11:25:00;;;;;;;9.00;6.30;;;3.70;99.90;;;;;;5067166;28;20467;-69
2021/01/06 11:27:43;;;;;;;6.60;4.43;;;3.60;99.90;;;;;;5069343;28;20453;-69
2021/01/06 11:30:24;;;;;;;7.63;6.20;;;3.60;82.20;;;;;;5069245;28;20451;-69
2021/01/06 11:33:17;;;;;;;7.50;5.80;;;3.50;99.90;;;;;;5068886;28;20473;-66
2021/01/06 11:35:48;;;;;;;7.83;5.70;;;3.60;99.90;;;;;;5068529;28;20509;-67
2021/01/06 11:38:48;;;;;;;8.40;6.90;;;3.60;99.90;;;;;;5072559;28;20945;-67
2021/01/06 11:41:16;;;;;;;10.70;7.27;;;3.50;99.90;;;;;;5089937;28;20449;-67
2021/01/06 11:43:58;;;;;;;10.00;7.40;;;3.60;99.90;;;;;;5068942;28;20576;-68
2021/01/06 11:47:01;;;;;;;8.83;6.30;;;3.70;99.90;;;;;;5070026;28;20875;-68
2021/01/06 11:49:31;;;;;;;7.20;5.40;;;3.60;99.90;;;;;;5049894;28;20917;-67
2021/01/06 11:52:24;;;;;;;7.87;6.40;;;3.70;99.90;;;;;;5068889;28;20453;-68
2021/01/06 11:54:56;;;;;;;5.67;5.00;;;3.70;99.90;;;;;;5069210;28;20483;-67
2021/01/06 11:57:36;;;;;;;9.33;6.77;;;3.60;99.90;;;;;;5089422;28;20933;-67
2021/01/06 12:00:25;;;;;;;10.53;6.70;;;3.60;98.30;;;;;;5086886;28;20755;-68
2021/01/06 12:03:14;;;;;;;8.13;6.70;;;3.60;99.90;;;;;;5068603;28;20926;-68
2021/01/06 12:05:54;;;;;;;9.23;6.87;;;3.60;99.90;;;;;;5068908;28;20544;-67
2021/01/06 12:08:24;;;;;;;8.23;6.20;;;3.50;99.90;;;;;;5068995;28;21277;-67
2021/01/06 12:11:06;;;;;;;9.33;6.93;;;3.60;99.90;;;;;;5068501;28;20592;-67
2021/01/06 12:13:46;;;;;;;7.90;6.30;;;3.70;99.90;;;;;;5069038;28;20532;-69
2021/01/06 12:16:16;;;;;;;7.70;6.30;;;3.60;95.20;;;;;;5070089;28;20825;-69
2021/01/06 12:19:12;;;;;;;7.50;5.50;;;3.40;99.90;;;;;;5089516;28;20985;-69
2021/01/06 12:21:51;;;;;;;7.57;5.73;;;3.40;99.90;;;;;;5072711;28;21047;-69
2021/01/06 12:24:24;;;;;;;8.33;6.53;;;3.60;99.90;;;;;;5070208;28;20962;-69
2021/01/06 12:27:00;;;;;;;9.23;6.63;;;3.40;99.90;;;;;;5068863;28;20531;-68
2021/01/06 12:29:33;;;;;;;9.03;6.63;;;3.60;99.90;;;;;;5071426;28;20482;-68
2021/01/06 12:32:10;;;;;;;7.57;6.40;;;3.70;99.90;;;;;;5068271;28;20985;-68
2021/01/06 12:34:41;;;;;;;7.30;5.73;;;3.60;99.90;;;;;;5068799;28;20584;-68
2021/01/06 12:37:22;;;;;;;8.30;6.50;;;3.70;99.90;;;;;;5070892;28;20536;-68
2021/01/06 12:40:06;;;;;;;8.33;5.60;;;3.60;99.90;;;;;;5077235;28;20556;-68
2021/01/06 12:42:38;;;;;;;7.13;5.53;;;3.40;99.90;;;;;;5070769;28;20446;-68
2021/01/06 12:45:16;;;;;;;9.20;5.90;;;3.60;99.90;;;;;;5057562;28;20530;-68
2021/01/06 12:47:52;;;;;;;8.23;6.50;;;3.80;99.90;;;;;;5065606;28;20443;-68
2021/01/06 12:50:24;;;;;;;9.77;6.60;;;3.70;99.90;;;;;;5062328;28;20506;-68
2021/01/06 12:52:54;;;;;;;8.93;6.10;;;3.60;99.90;;;;;;5067242;28;20494;-68
2021/01/06 12:55:29;;;;;;;8.50;6.07;;;3.60;99.90;;;;;;5071362;28;20872;-67
2021/01/06 12:58:00;;;;;;;9.20;6.27;;;3.70;99.90;;;;;;5088355;28;20474;-67
2021/01/06 13:00:32;;;;;;;8.33;5.93;;;3.70;99.90;;;;;;5070398;28;20533;-66
2021/01/06 13:03:18;;;;;;;7.97;5.80;;;3.70;99.90;;;;;;5067872;28;20501;-67
2021/01/06 13:05:53;;;;;;;6.13;4.80;;;3.70;99.90;;;;;;5068353;28;20485;-67
2021/01/06 13:08:37;;;;;;;5.80;5.20;;;3.80;95.70;;;;;;5056906;28;20526;-67
2021/01/06 13:11:16;;;;;;;7.40;5.70;;;3.70;99.90;;;;;;5067313;28;20510;-67
2021/01/06 13:13:46;;;;;;;6.37;5.47;;;3.60;99.90;;;;;;5067631;28;20611;-67
2021/01/06 13:16:25;;;;;;;5.30;4.80;;;3.50;99.90;;;;;;5067484;28;20489;-67
2021/01/06 13:19:20;;;;;;;5.47;4.90;;;3.50;99.90;;;;;;5057877;28;20491;-67
2021/01/06 13:22:05;;;;;;;5.00;4.50;;;3.70;99.90;;;;;;5067097;28;20972;-67
2021/01/06 13:24:35;;;;;;;4.93;3.73;;;3.80;99.90;;;;;;5068009;28;20457;-67
2021/01/06 13:27:05;;;;;;;7.50;4.30;;;3.50;99.10;;;;;;5066768;28;20494;-67